Terminal Aerodrome Forecast
Issued by NWS

Home | Current Version | Previous Version | Text Only | Print | Product List | Glossary On
Versions: 1 2 3 4 5 6 7 8 9 10 11 12 13 14 15 16 17 18
000
FTUS44 KHGX 241723
TAFSGR
TAF
KSGR 241723Z 2418/2518 18013G23KT P6SM SCT030 SCT250
     FM250000 17010KT P6SM SCT025
     FM250300 18009KT P6SM BKN025
     FM250900 20008KT P6SM VCSH SCT005 BKN015 OVC025
     FM251500 31010KT P6SM SCT050 BKN250=

USA.gov is the U.S. government's official web portal to all federal, state and local government web resources and services.